Time;durP1;ratioP1;P1;durP2;ratioP2;P2;SDS_P1;SDS_P2;PMS_P1;PMS_P2;Temp;Humidity;BMP_temperature;BMP_pressure;BME280_temperature;BME280_humidity;BME280_pressure;Samples;Min_cycle;Max_cycle;Signal;HPM_P1;HPM_P2
2023/09/14 00:00:19;;;;;;;;;;;;;;;29.27;42.07;94663.19;4830664;29;8757;-56
2023/09/14 00:02:48;;;;;;;;;;;;;;;29.26;41.64;94664.44;4830457;29;7150;-56
2023/09/14 00:05:16;;;;;;;;;;;;;;;29.27;42.32;94668.72;4834434;29;8729;-56
2023/09/14 00:07:44;;;;;;;;;;;;;;;29.27;41.77;94657.66;4821983;29;7236;-56
2023/09/14 00:10:12;;;;;;;;;;;;;;;29.26;42.60;94656.88;4821928;29;7302;-56
2023/09/14 00:12:40;;;;;;;;;;;;;;;29.27;42.22;94657.66;4835780;29;7249;-56
2023/09/14 00:15:06;;;;;;;;;;;;;;;29.26;41.61;94654.13;4864759;29;9107;-56
2023/09/14 00:17:37;;;;;;;;;;;;;;;29.28;41.70;94659.13;4877327;29;7078;-56
2023/09/14 00:20:06;;;;;;;;;;;;;;;29.27;41.94;94654.88;4870467;29;8763;-56
2023/09/14 00:22:35;;;;;;;;;;;;;;;29.28;41.93;94659.88;4901117;29;7149;-56
2023/09/14 00:25:01;;;;;;;;;;;;;;;29.28;41.90;94657.09;4918728;29;6946;-56
2023/09/14 00:27:27;;;;;;;;;;;;;;;29.29;41.42;94658.59;4948894;28;7638;-56
2023/09/14 00:29:53;;;;;;;;;;;;;;;29.29;42.30;94653.06;5000279;28;7288;-56
2023/09/14 00:32:24;;;;;;;;;;;;;;;29.29;42.66;94658.59;5022583;28;7256;-56
2023/09/14 00:34:55;;;;;;;;;;;;;;;29.28;42.06;94650.81;5011279;28;7278;-62
2023/09/14 00:37:29;;;;;;;;;;;;;;;29.27;41.72;94652.84;5015968;28;7270;-62
2023/09/14 00:39:59;;;;;;;;;;;;;;;29.26;42.42;94645.81;5012568;28;7531;-62
2023/09/14 00:42:26;;;;;;;;;;;;;;;29.28;41.72;94648.03;5014157;28;8707;-62
2023/09/14 00:44:52;;;;;;;;;;;;;;;29.28;42.61;94645.25;5011753;28;6990;-62
2023/09/14 00:47:18;;;;;;;;;;;;;;;29.26;41.97;94654.13;5005788;28;9139;-62
2023/09/14 00:49:46;;;;;;;;;;;;;;;29.28;42.19;94648.03;5013559;28;8118;-62
2023/09/14 00:52:18;;;;;;;;;;;;;;;29.28;41.69;94650.81;5027960;28;8811;-62
2023/09/14 00:54:57;;;;;;;;;;;;;;;29.29;41.97;94649.53;5029160;28;8973;-62
2023/09/14 00:57:43;;;;;;;;;;;;;;;29.26;42.02;94647.81;5031385;28;7211;-62
2023/09/14 01:00:30;;;;;;;;;;;;;;;29.26;41.95;94645.06;5015196;28;7235;-62
2023/09/14 01:03:19;;;;;;;;;;;;;;;29.25;42.66;94649.13;5011960;28;7320;-62
2023/09/14 01:06:07;;;;;;;;;;;;;;;29.25;41.77;94644.31;5027673;28;7245;-62
2023/09/14 01:08:46;;;;;;;;;;;;;;;29.24;42.17;94639.28;5029163;28;9140;-62
2023/09/14 01:11:14;;;;;;;;;;;;;;;29.23;42.75;94641.31;5014070;28;7479;-62
2023/09/14 01:14:01;;;;;;;;;;;;;;;29.23;41.78;94646.13;5013774;28;7098;-62
2023/09/14 01:16:46;;;;;;;;;;;;;;;29.22;41.96;94637.06;5010418;28;6941;-62
2023/09/14 01:19:50;;;;;;;;;;;;;;;29.22;42.73;94639.84;5002105;28;8644;-61
2023/09/14 01:22:43;;;;;;;;;;;;;;;29.23;41.47;94632.28;5009555;28;8979;-62
2023/09/14 01:25:39;;;;;;;;;;;;;;;29.21;41.48;94635.56;5015393;28;9009;-62
2023/09/14 01:28:14;;;;;;;;;;;;;;;29.22;42.39;94634.28;5024153;28;9106;-62
2023/09/14 01:30:43;;;;;;;;;;;;;;;29.22;41.62;94628.75;5022798;28;7045;-62
2023/09/14 01:33:17;;;;;;;;;;;;;;;29.21;42.46;94632.78;5026768;28;8764;-62
2023/09/14 01:36:16;;;;;;;;;;;;;;;29.22;42.54;94631.53;5014335;28;7181;-62
2023/09/14 01:38:45;;;;;;;;;;;;;;;29.21;42.12;94623.75;5003559;28;7053;-62
2023/09/14 01:41:14;;;;;;;;;;;;;;;29.22;41.29;94633.53;5013673;28;9056;-61
2023/09/14 01:43:43;;;;;;;;;;;;;;;29.20;42.05;94630.56;5026028;28;7391;-62
2023/09/14 01:46:11;;;;;;;;;;;;;;;29.20;42.49;94642.38;5008241;28;7011;-62
2023/09/14 01:48:41;;;;;;;;;;;;;;;29.19;41.96;94640.16;5009896;28;6984;-62
2023/09/14 01:51:35;;;;;;;;;;;;;;;29.19;41.66;94637.38;5012032;28;9049;-62
2023/09/14 01:54:02;;;;;;;;;;;;;;;29.18;42.34;94628.31;4979360;28;7248;-62
2023/09/14 01:56:53;;;;;;;;;;;;;;;29.18;41.73;94633.09;4985077;28;7235;-62
2023/09/14 01:59:32;;;;;;;;;;;;;;;29.17;41.53;94631.63;4990544;28;9214;-62
2023/09/14 02:02:46;;;;;;;;;;;;;;;29.21;41.63;94632.06;4979798;28;7846;-62
2023/09/14 02:05:43;;;;;;;;;;;;;;;29.18;42.25;94631.09;4899966;29;8953;-63
2023/09/14 02:08:20;;;;;;;;;;;;;;;29.17;42.24;94626.09;4866587;29;8433;-62
2023/09/14 02:10:55;;;;;;;;;;;;;;;29.18;42.14;94631.09;4871725;29;7282;-62
2023/09/14 02:13:30;;;;;;;;;;;;;;;29.20;42.67;94627.78;4865925;29;6983;-62
2023/09/14 02:16:08;;;;;;;;;;;;;;;29.18;42.05;94630.34;4869217;29;9100;-62
2023/09/14 02:18:44;;;;;;;;;;;;;;;29.18;42.74;94633.84;4856390;29;7467;-62
2023/09/14 02:21:16;;;;;;;;;;;;;;;29.19;41.64;94631.84;4854941;29;7011;-62
2023/09/14 02:24:30;;;;;;;;;;;;;;;29.19;42.45;94623.53;4859021;29;7217;-62
2023/09/14 02:27:00;;;;;;;;;;;;;;;29.16;42.37;94622.56;4859101;29;9044;-62
2023/09/14 02:29:42;;;;;;;;;;;;;;;29.15;41.68;94626.56;4864692;29;7236;-62
2023/09/14 02:32:23;;;;;;;;;;;;;;;29.18;42.20;94627.56;4857082;29;8478;-62
2023/09/14 02:34:51;;;;;;;;;;;;;;;29.16;41.77;94619.00;4850839;29;7660;-62
2023/09/14 02:37:26;;;;;;;;;;;;;;;29.19;41.99;94623.53;4859720;29;9102;-62
2023/09/14 02:40:12;;;;;;;;;;;;;;;29.20;42.01;94625.00;4858505;29;7220;-62
2023/09/14 02:42:40;;;;;;;;;;;;;;;29.16;42.25;94624.56;4910699;29;8832;-62
2023/09/14 02:45:15;;;;;;;;;;;;;;;29.20;41.80;94627.78;4986814;28;7177;-62
2023/09/14 02:47:41;;;;;;;;;;;;;;;29.15;41.53;94621.03;5026260;28;7141;-62
2023/09/14 02:50:36;;;;;;;;;;;;;;;29.16;41.85;94625.34;5026937;28;7397;-62
2023/09/14 02:53:02;;;;;;;;;;;;;;;29.16;41.83;94621.78;5004978;28;7323;-62
2023/09/14 02:55:34;;;;;;;;;;;;;;;29.16;41.83;94621.78;5011306;28;9235;-55
2023/09/14 02:58:00;;;;;;;;;;;;;;;29.16;41.23;94625.34;5013269;28;7207;-55
2023/09/14 03:00:27;;;;;;;;;;;;;;;29.12;41.62;94624.13;5028830;28;9000;-55
2023/09/14 03:02:53;;;;;;;;;;;;;;;29.12;42.11;94618.56;5026439;28;9116;-55
2023/09/14 03:05:20;;;;;;;;;;;;;;;29.10;41.80;94625.38;5005635;28;9032;-55
2023/09/14 03:07:48;;;;;;;;;;;;;;;29.13;41.75;94620.81;5025264;28;7449;-55
2023/09/14 03:10:14;;;;;;;;;;;;;;;29.11;42.35;94626.13;5023732;28;8825;-55
2023/09/14 03:12:54;;;;;;;;;;;;;;;29.12;41.70;94624.13;5009356;28;7038;-55
2023/09/14 03:15:22;;;;;;;;;;;;;;;29.16;42.09;94624.56;5012987;28;7331;-55
2023/09/14 03:17:54;;;;;;;;;;;;;;;29.15;41.30;94629.34;5001489;28;7520;-55
2023/09/14 03:20:20;;;;;;;;;;;;;;;29.13;41.80;94625.59;5012842;28;7274;-55
2023/09/14 03:22:49;;;;;;;;;;;;;;;29.09;42.49;94625.91;5028359;28;7416;-55
2023/09/14 03:25:15;;;;;;;;;;;;;;;29.13;42.38;94626.34;5011748;28;6982;-55
2023/09/14 03:27:41;;;;;;;;;;;;;;;29.10;41.67;94624.66;5007994;28;7223;-55
2023/09/14 03:30:16;;;;;;;;;;;;;;;29.08;41.49;94625.16;5019334;28;7361;-55
2023/09/14 03:32:42;;;;;;;;;;;;;;;29.08;42.79;94618.88;5009944;28;7411;-55
2023/09/14 03:35:13;;;;;;;;;;;;;;;29.10;41.64;94622.63;5013918;28;7005;-55
2023/09/14 03:37:39;;;;;;;;;;;;;;;29.09;42.47;94626.66;5015909;28;9115;-55
2023/09/14 03:40:10;;;;;;;;;;;;;;;29.09;41.89;94621.13;5026474;28;9084;-55
2023/09/14 03:42:36;;;;;;;;;;;;;;;29.08;42.04;94619.63;5008193;28;8169;-55
2023/09/14 03:45:21;;;;;;;;;;;;;;;29.08;41.81;94625.16;5005993;28;8920;-55
2023/09/14 03:47:51;;;;;;;;;;;;;;;29.07;41.78;94618.16;5020318;28;7408;-55
2023/09/14 03:50:31;;;;;;;;;;;;;;;29.05;41.59;94617.94;5004736;28;7152;-55
2023/09/14 03:53:10;;;;;;;;;;;;;;;29.06;41.53;94624.94;5027873;28;8661;-55
2023/09/14 03:55:42;;;;;;;;;;;;;;;29.04;42.05;94607.34;5011096;28;6994;-55
2023/09/14 03:58:19;;;;;;;;;;;;;;;29.07;42.43;94611.84;5003064;28;8257;-55
2023/09/14 04:00:45;;;;;;;;;;;;;;;29.05;41.89;94612.38;5012219;28;7325;-55
2023/09/14 04:03:17;;;;;;;;;;;;;;;29.08;41.86;94613.34;5008910;28;7396;-55
2023/09/14 04:05:54;;;;;;;;;;;;;;;29.09;42.26;94609.31;5011901;28;7182;-62
2023/09/14 04:08:38;;;;;;;;;;;;;;;29.10;41.80;94616.34;5013950;28;7318;-62
2023/09/14 04:11:25;;;;;;;;;;;;;;;29.05;41.95;94612.38;5017206;28;7499;-62
2023/09/14 04:13:51;;;;;;;;;;;;;;;29.07;41.95;94620.16;5017758;28;8904;-62
2023/09/14 04:16:30;;;;;;;;;;;;;;;29.05;41.88;94612.38;5013016;28;9420;-62
2023/09/14 04:19:04;;;;;;;;;;;;;;;29.05;41.73;94614.41;5012408;28;7372;-62
2023/09/14 04:21:43;;;;;;;;;;;;;;;29.05;42.29;94612.38;5009264;28;7321;-62
2023/09/14 04:24:19;;;;;;;;;;;;;;;29.05;41.37;94609.63;5011938;28;7167;-62
2023/09/14 04:26:46;;;;;;;;;;;;;;;29.04;41.92;94602.56;5017115;28;7214;-62
2023/09/14 04:29:14;;;;;;;;;;;;;;;29.05;42.21;94609.63;5007568;28;9224;-62
2023/09/14 04:31:43;;;;;;;;;;;;;;;29.05;42.00;94606.09;5010834;28;7253;-61
2023/09/14 04:34:10;;;;;;;;;;;;;;;29.02;42.17;94610.66;5011334;28;7074;-62
2023/09/14 04:36:56;;;;;;;;;;;;;;;29.02;41.84;94618.97;5012164;28;9174;-62
2023/09/14 04:39:26;;;;;;;;;;;;;;;29.02;41.84;94618.97;5008795;28;7341;-62
2023/09/14 04:42:06;;;;;;;;;;;;;;;29.01;42.17;94616.75;5017702;28;8709;-62
2023/09/14 04:44:33;;;;;;;;;;;;;;;29.00;42.15;94616.00;5010998;28;7151;-62
2023/09/14 04:47:10;;;;;;;;;;;;;;;28.99;41.70;94617.25;5009584;28;9061;-61
2023/09/14 04:49:35;;;;;;;;;;;;;;;29.01;41.73;94619.50;5007523;28;7324;-62
2023/09/14 04:52:02;;;;;;;;;;;;;;;29.00;42.36;94627.06;5027318;28;9220;-62
2023/09/14 04:54:40;;;;;;;;;;;;;;;28.99;42.52;94620.03;5035390;28;7671;-62
2023/09/14 04:57:12;;;;;;;;;;;;;;;28.98;42.57;94626.09;5006901;28;10155;-62
2023/09/14 04:59:45;;;;;;;;;;;;;;;28.97;42.17;94625.34;5026021;28;7359;-62
2023/09/14 05:02:12;;;;;;;;;;;;;;;28.96;42.09;94629.41;5021641;28;7238;-62
2023/09/14 05:04:56;;;;;;;;;;;;;;;29.00;42.49;94629.84;5008604;28;7499;-62
2023/09/14 05:07:36;;;;;;;;;;;;;;;29.02;42.73;94634.84;5010416;28;7533;-62
2023/09/14 05:10:36;;;;;;;;;;;;;;;28.99;42.62;94630.38;5014032;28;7253;-62
2023/09/14 05:13:05;;;;;;;;;;;;;;;28.97;42.83;94635.69;4954688;28;7519;-63
2023/09/14 05:16:00;;;;;;;;;;;;;;;28.98;42.61;94632.38;4948327;28;7313;-64
2023/09/14 05:18:26;;;;;;;;;;;;;;;28.96;42.97;94640.47;4901405;29;7583;-63
2023/09/14 05:20:52;;;;;;;;;;;;;;;28.96;43.01;94636.97;4923403;29;7079;-65
2023/09/14 05:23:20;;;;;;;;;;;;;;;28.93;42.20;94629.69;4903647;29;9187;-64
2023/09/14 05:25:47;;;;;;;;;;;;;;;28.96;42.18;94637.72;4899689;29;7315;-64
2023/09/14 05:28:16;;;;;;;;;;;;;;;28.98;42.22;94634.41;4890768;29;8953;-63
2023/09/14 05:30:45;;;;;;;;;;;;;;;29.01;42.61;94636.13;4899326;29;7465;-64
2023/09/14 05:33:36;;;;;;;;;;;;;;;29.00;42.13;94642.94;4917300;29;9217;-64
2023/09/14 05:36:31;;;;;;;;;;;;;;;28.99;41.55;94642.19;4916897;29;7014;-63
2023/09/14 05:39:08;;;;;;;;;;;;;;;28.98;41.63;94637.94;4914591;29;7481;-64
2023/09/14 05:41:50;;;;;;;;;;;;;;;28.96;42.14;94640.47;4899432;29;9116;-63
2023/09/14 05:44:30;;;;;;;;;;;;;;;28.97;42.35;94635.69;4912761;29;6861;-64
2023/09/14 05:47:05;;;;;;;;;;;;;;;28.98;42.71;94642.72;4910162;29;7606;-65
2023/09/14 05:49:31;;;;;;;;;;;;;;;28.95;41.78;94649.28;4931176;28;6917;-65
2023/09/14 05:52:13;;;;;;;;;;;;;;;28.90;42.27;94642.59;4936986;28;7249;-65
2023/09/14 05:55:18;;;;;;;;;;;;;;;28.86;42.25;94642.13;4975196;28;7169;-64
2023/09/14 05:57:55;;;;;;;;;;;;;;;28.86;42.41;94650.44;4970147;28;7196;-64
2023/09/14 06:00:50;;;;;;;;;;;;;;;28.84;41.75;94649.50;4972697;28;7248;-64
2023/09/14 06:03:24;;;;;;;;;;;;;;;28.83;42.33;94659.06;4940732;28;7877;-65
2023/09/14 06:06:04;;;;;;;;;;;;;;;28.82;42.71;94654.78;4940843;28;7215;-65
2023/09/14 06:08:46;;;;;;;;;;;;;;;28.81;43.09;94656.81;4950930;28;7251;-65
2023/09/14 06:11:12;;;;;;;;;;;;;;;28.81;42.81;94648.50;4954325;28;9036;-65
2023/09/14 06:14:06;;;;;;;;;;;;;;;28.81;43.11;94651.28;4953247;28;7070;-65
2023/09/14 06:16:43;;;;;;;;;;;;;;;28.81;43.20;94659.59;4953237;28;7450;-65
2023/09/14 06:19:13;;;;;;;;;;;;;;;28.81;43.35;94656.81;4955730;28;8851;-65
2023/09/14 06:21:49;;;;;;;;;;;;;;;28.79;42.24;94653.84;4961075;28;7266;-65
2023/09/14 06:24:17;;;;;;;;;;;;;;;28.80;43.35;94660.09;4949559;28;7236;-62
2023/09/14 06:26:44;;;;;;;;;;;;;;;28.81;43.14;94659.59;4963918;28;9153;-62
2023/09/14 06:29:22;;;;;;;;;;;;;;;28.80;42.84;94658.09;4976176;28;7415;-62
2023/09/14 06:32:05;;;;;;;;;;;;;;;28.76;43.04;94657.63;4968031;28;7070;-62
2023/09/14 06:34:33;;;;;;;;;;;;;;;28.74;42.91;94654.66;4969618;28;7368;-62
2023/09/14 06:37:34;;;;;;;;;;;;;;;28.75;42.92;94650.59;4979030;28;7263;-62
2023/09/14 06:40:03;;;;;;;;;;;;;;;28.76;42.88;94654.88;4956046;28;8771;-62
2023/09/14 06:42:49;;;;;;;;;;;;;;;28.75;42.60;94652.63;4975781;28;7568;-62
2023/09/14 06:45:20;;;;;;;;;;;;;;;28.73;42.99;94649.66;4951256;28;7138;-62
2023/09/14 06:47:58;;;;;;;;;;;;;;;28.74;42.60;94646.34;4949432;28;8951;-62
2023/09/14 06:50:24;;;;;;;;;;;;;;;28.76;42.42;94648.59;4978316;28;8690;-62
2023/09/14 06:52:59;;;;;;;;;;;;;;;28.73;43.34;94653.16;4951812;28;7415;-62
2023/09/14 06:55:25;;;;;;;;;;;;;;;28.74;42.64;94653.91;4966560;28;7066;-62
2023/09/14 06:57:51;;;;;;;;;;;;;;;28.71;42.73;94647.38;4959913;28;7186;-61
2023/09/14 07:00:21;;;;;;;;;;;;;;;28.72;43.62;94646.13;4966825;28;8214;-62
2023/09/14 07:02:52;;;;;;;;;;;;;;;28.71;43.25;94646.66;4959269;28;7248;-62
2023/09/14 07:05:27;;;;;;;;;;;;;;;28.70;43.12;94648.69;4973163;28;7054;-62
2023/09/14 07:07:53;;;;;;;;;;;;;;;28.73;42.63;94655.19;4950701;28;7724;-63
2023/09/14 07:10:29;;;;;;;;;;;;;;;28.73;42.39;94655.19;4953700;28;7095;-62
2023/09/14 07:12:56;;;;;;;;;;;;;;;28.73;42.73;94653.16;4963263;28;7365;-62
2023/09/14 07:15:22;;;;;;;;;;;;;;;28.73;43.35;94660.72;4973613;28;8874;-62
2023/09/14 07:17:48;;;;;;;;;;;;;;;28.75;43.07;94658.19;5009186;28;7182;-62
2023/09/14 07:20:14;;;;;;;;;;;;;;;28.74;42.42;94662.97;5020416;28;7619;-62
2023/09/14 07:22:42;;;;;;;;;;;;;;;28.75;43.20;94658.19;5004079;28;8829;-62
2023/09/14 07:25:11;;;;;;;;;;;;;;;28.76;42.59;94651.34;5022427;28;7245;-61
2023/09/14 07:27:37;;;;;;;;;;;;;;;28.74;42.78;94646.34;5003551;28;9150;-62
2023/09/14 07:30:07;;;;;;;;;;;;;;;28.74;43.32;94651.88;5001930;28;9037;-62
2023/09/14 07:32:34;;;;;;;;;;;;;;;28.72;43.28;94653.69;5006850;28;7181;-62
2023/09/14 07:35:05;;;;;;;;;;;;;;;28.74;43.30;94653.91;5006985;28;9130;-60
2023/09/14 07:37:31;;;;;;;;;;;;;;;28.72;42.63;94653.69;5006154;28;8747;-60
2023/09/14 07:39:59;;;;;;;;;;;;;;;28.72;43.00;94650.91;5009602;28;8824;-60
2023/09/14 07:42:25;;;;;;;;;;;;;;;28.71;43.13;94652.94;5007064;28;7232;-60
2023/09/14 07:44:52;;;;;;;;;;;;;;;28.70;42.57;94656.97;5007112;28;7244;-60
2023/09/14 07:47:28;;;;;;;;;;;;;;;28.70;43.25;94653.47;5009305;28;7006;-60
2023/09/14 07:49:54;;;;;;;;;;;;;;;28.69;42.67;94649.94;5008578;28;7250;-60
2023/09/14 07:52:20;;;;;;;;;;;;;;;28.73;42.71;94655.19;5009302;28;7185;-60
2023/09/14 07:54:48;;;;;;;;;;;;;;;28.76;43.06;94657.63;5009827;28;7429;-60
2023/09/14 07:57:17;;;;;;;;;;;;;;;28.78;42.71;94659.88;5004296;28;7175;-60
2023/09/14 07:59:45;;;;;;;;;;;;;;;28.80;43.21;94666.38;5009977;28;9107;-60
2023/09/14 08:02:12;;;;;;;;;;;;;;;28.79;42.53;94664.16;5009413;28;7057;-60
2023/09/14 08:04:43;;;;;;;;;;;;;;;28.81;42.11;94678.97;5008165;28;6988;-60
2023/09/14 08:07:11;;;;;;;;;;;;;;;28.82;42.42;94674.16;5004459;28;7251;-60
2023/09/14 08:09:37;;;;;;;;;;;;;;;28.81;42.72;94673.44;4998477;28;7015;-60
2023/09/14 08:12:04;;;;;;;;;;;;;;;28.83;42.47;94673.66;5003563;28;7317;-60
2023/09/14 08:14:30;;;;;;;;;;;;;;;28.83;42.72;94675.66;5010158;28;7212;-60
2023/09/14 08:16:56;;;;;;;;;;;;;;;28.82;43.25;94665.84;5002764;28;8788;-60
2023/09/14 08:19:24;;;;;;;;;;;;;;;28.83;42.31;94676.41;5006307;28;7270;-60
2023/09/14 08:21:52;;;;;;;;;;;;;;;28.83;43.08;94668.13;5002441;28;9079;-60
2023/09/14 08:24:18;;;;;;;;;;;;;;;28.83;42.28;94665.34;4999476;28;7232;-60
2023/09/14 08:26:48;;;;;;;;;;;;;;;28.85;42.65;94667.59;5002565;28;7292;-60
2023/09/14 08:29:15;;;;;;;;;;;;;;;28.85;43.12;94665.56;5025815;28;6994;-60
2023/09/14 08:31:47;;;;;;;;;;;;;;;28.84;43.00;94658.53;4994799;28;7128;-60
2023/09/14 08:34:13;;;;;;;;;;;;;;;28.87;42.09;94667.81;5009297;28;9339;-60
2023/09/14 08:36:43;;;;;;;;;;;;;;;28.83;42.17;94668.13;5025175;28;7207;-60
2023/09/14 08:39:15;;;;;;;;;;;;;;;28.84;43.01;94672.38;5008475;28;6861;-60
2023/09/14 08:41:41;;;;;;;;;;;;;;;28.84;42.95;94672.38;5014826;28;8823;-60
2023/09/14 08:44:10;;;;;;;;;;;;;;;28.86;42.63;94669.09;5010012;28;9635;-60
2023/09/14 08:46:39;;;;;;;;;;;;;;;28.86;43.01;94677.41;5011550;28;7495;-56
2023/09/14 08:49:06;;;;;;;;;;;;;;;28.86;42.99;94672.59;5000317;28;7558;-56
2023/09/14 08:51:37;;;;;;;;;;;;;;;28.88;42.61;94677.63;5014182;28;7011;-56
2023/09/14 08:54:05;;;;;;;;;;;;;;;28.86;43.21;94672.59;5026528;28;7013;-56
2023/09/14 08:56:32;;;;;;;;;;;;;;;28.87;43.11;94673.34;5012886;28;9182;-56
2023/09/14 08:59:05;;;;;;;;;;;;;;;28.86;42.98;94669.81;5012477;28;7350;-56
2023/09/14 09:01:32;;;;;;;;;;;;;;;28.87;42.47;94676.09;4995188;28;8780;-56
2023/09/14 09:03:58;;;;;;;;;;;;;;;28.88;43.24;94663.78;5005410;28;7896;-56
2023/09/14 09:06:27;;;;;;;;;;;;;;;28.89;42.52;94663.22;5011548;28;7351;-56
2023/09/14 09:08:55;;;;;;;;;;;;;;;28.88;42.60;94663.78;5011296;28;8756;-56
2023/09/14 09:11:22;;;;;;;;;;;;;;;28.88;42.77;94663.78;5007613;28;8171;-56
2023/09/14 09:13:50;;;;;;;;;;;;;;;28.87;42.56;94660.25;5028195;28;8776;-56
2023/09/14 09:16:16;;;;;;;;;;;;;;;28.87;43.07;94659.50;5027836;28;7562;-56
2023/09/14 09:19:10;;;;;;;;;;;;;;;28.89;42.45;94662.47;5012071;28;7122;-56
2023/09/14 09:21:41;;;;;;;;;;;;;;;28.89;42.67;94670.78;5011771;28;9427;-56
2023/09/14 09:24:14;;;;;;;;;;;;;;;28.89;42.67;94666.00;5030336;28;7221;-56
2023/09/14 09:26:51;;;;;;;;;;;;;;;28.88;42.28;94664.50;5012951;28;8640;-56
2023/09/14 09:29:20;;;;;;;;;;;;;;;28.87;42.39;94671.31;5002028;28;9044;-56
2023/09/14 09:31:50;;;;;;;;;;;;;;;28.86;42.38;94661.50;5011511;28;7293;-56
2023/09/14 09:34:35;;;;;;;;;;;;;;;28.87;42.16;94665.78;5014163;28;7310;-56
2023/09/14 09:37:13;;;;;;;;;;;;;;;28.87;42.72;94665.78;5029324;28;7219;-56
2023/09/14 09:39:51;;;;;;;;;;;;;;;28.87;42.82;94660.25;5009405;28;7235;-56
2023/09/14 09:42:32;;;;;;;;;;;;;;;28.87;42.08;94656.72;5015473;28;9201;-56
2023/09/14 09:44:59;;;;;;;;;;;;;;;28.87;42.91;94663.00;5003567;28;7019;-56
2023/09/14 09:47:33;;;;;;;;;;;;;;;28.87;41.94;94659.50;5014233;28;7029;-56
2023/09/14 09:50:10;;;;;;;;;;;;;;;28.88;42.86;94664.50;5010769;28;7856;-56
2023/09/14 09:52:38;;;;;;;;;;;;;;;28.90;42.55;94656.44;5014022;28;7373;-56
2023/09/14 09:55:25;;;;;;;;;;;;;;;28.91;41.90;94654.41;5015474;28;7319;-60
2023/09/14 09:58:10;;;;;;;;;;;;;;;28.88;42.41;94647.88;5020368;28;7065;-60
2023/09/14 10:00:40;;;;;;;;;;;;;;;28.90;42.60;94653.66;5022773;28;8959;-60
2023/09/14 10:03:16;;;;;;;;;;;;;;;28.90;42.38;94655.69;5014921;28;7242;-60
2023/09/14 10:05:52;;;;;;;;;;;;;;;28.90;42.14;94650.16;5024309;28;7154;-60
2023/09/14 10:09:02;;;;;;;;;;;;;;;28.91;42.82;94651.63;5011621;28;7343;-61
2023/09/14 10:11:39;;;;;;;;;;;;;;;28.92;42.76;94644.81;5000676;28;7733;-60
2023/09/14 10:14:10;;;;;;;;;;;;;;;28.91;42.45;94646.84;5016814;28;7242;-60
2023/09/14 10:17:06;;;;;;;;;;;;;;;28.94;42.02;94637.50;4994711;28;7307;-61
2023/09/14 10:19:47;;;;;;;;;;;;;;;28.90;42.75;94625.97;4966829;28;7252;-61
2023/09/14 10:22:50;;;;;;;;;;;;;;;28.92;42.91;94623.44;4976821;28;7181;-60
2023/09/14 10:25:28;;;;;;;;;;;;;;;28.93;42.10;94627.69;4943475;28;8796;-61
2023/09/14 10:28:08;;;;;;;;;;;;;;;28.92;42.54;94620.66;4937043;28;8810;-60
2023/09/14 10:31:10;;;;;;;;;;;;;;;28.95;41.86;94618.84;4934942;29;7640;-61
2023/09/14 10:33:51;;;;;;;;;;;;;;;28.95;42.30;94621.59;4914401;29;7863;-61
2023/09/14 10:36:43;;;;;;;;;;;;;;;28.95;42.59;94627.13;4899297;29;7349;-60
2023/09/14 10:39:17;;;;;;;;;;;;;;;28.94;42.25;94618.09;4902957;29;7418;-61
2023/09/14 10:41:55;;;;;;;;;;;;;;;29.00;42.48;94618.75;4912457;29;7022;-60
2023/09/14 10:44:33;;;;;;;;;;;;;;;29.00;42.62;94613.22;4901911;29;7338;-60
2023/09/14 10:47:10;;;;;;;;;;;;;;;28.99;41.93;94617.25;4895589;29;8532;-61
2023/09/14 10:49:41;;;;;;;;;;;;;;;29.00;42.99;94610.44;4894504;29;7370;-61
2023/09/14 10:52:07;;;;;;;;;;;;;;;29.00;42.22;94602.13;4906331;29;7171;-61
2023/09/14 10:54:35;;;;;;;;;;;;;;;28.99;42.83;94588.84;4909739;29;7100;-61
2023/09/14 10:57:13;;;;;;;;;;;;;;;29.02;42.97;94593.28;4928728;28;7238;-60
2023/09/14 10:59:57;;;;;;;;;;;;;;;29.02;41.72;94588.50;4933588;28;7040;-60
2023/09/14 11:02:39;;;;;;;;;;;;;;;29.03;42.67;94589.25;4962917;28;7001;-60
2023/09/14 11:05:25;;;;;;;;;;;;;;;29.03;41.61;94583.72;4971123;28;8775;-56
2023/09/14 11:07:57;;;;;;;;;;;;;;;29.02;41.95;94573.91;4957209;28;7381;-56
2023/09/14 11:10:23;;;;;;;;;;;;;;;29.05;42.71;94570.09;5010055;28;7215;-56
2023/09/14 11:12:52;;;;;;;;;;;;;;;29.02;41.83;94571.91;5010392;28;8888;-56
2023/09/14 11:15:21;;;;;;;;;;;;;;;29.04;42.31;94561.03;4999002;28;9248;-56
2023/09/14 11:17:54;;;;;;;;;;;;;;;29.04;42.44;94569.34;5025169;28;7639;-56
2023/09/14 11:20:26;;;;;;;;;;;;;;;29.03;41.67;94569.88;5036773;28;7023;-56
2023/09/14 11:23:00;;;;;;;;;;;;;;;29.04;42.98;94563.81;5005975;28;6983;-56
2023/09/14 11:25:31;;;;;;;;;;;;;;;29.03;42.04;94564.34;5027978;28;7232;-56
2023/09/14 11:28:24;;;;;;;;;;;;;;;29.07;42.27;94565.53;5007125;28;9126;-56
2023/09/14 11:31:04;;;;;;;;;;;;;;;29.06;41.99;94560.50;4952896;28;8969;-56
2023/09/14 11:33:31;;;;;;;;;;;;;;;29.07;42.60;94571.06;4952572;28;7088;-56
2023/09/14 11:36:17;;;;;;;;;;;;;;;29.07;42.22;94570.31;4952763;28;7407;-56
2023/09/14 11:39:11;;;;;;;;;;;;;;;29.05;42.03;94567.31;4935873;29;7279;-56
2023/09/14 11:41:56;;;;;;;;;;;;;;;29.06;42.89;94566.78;4930113;29;7231;-56
2023/09/14 11:44:23;;;;;;;;;;;;;;;29.04;41.99;94561.03;4931658;29;7231;-56
2023/09/14 11:46:50;;;;;;;;;;;;;;;29.03;42.31;94562.31;4952378;28;9097;-56
2023/09/14 11:49:21;;;;;;;;;;;;;;;29.03;42.53;94558.81;4948884;29;7272;-56
2023/09/14 11:51:56;;;;;;;;;;;;;;;29.03;42.51;94556.78;4952485;29;7245;-56
2023/09/14 11:54:51;;;;;;;;;;;;;;;29.05;42.59;94559.00;4949769;28;7211;-56
2023/09/14 11:57:27;;;;;;;;;;;;;;;29.04;41.82;94557.50;4949007;29;7700;-56
2023/09/14 11:59:53;;;;;;;;;;;;;;;29.01;42.48;94553.78;4920052;29;8166;-56
2023/09/14 12:02:20;;;;;;;;;;;;;;;29.04;42.87;94558.25;4951075;28;9187;-56
2023/09/14 12:04:47;;;;;;;;;;;;;;;29.03;43.00;94553.25;4933397;29;7260;-56
2023/09/14 12:07:21;;;;;;;;;;;;;;;29.05;41.97;94554.22;4956626;28;9315;-56
2023/09/14 12:09:49;;;;;;;;;;;;;;;29.06;42.05;94552.94;5000670;28;7087;-56
2023/09/14 12:12:35;;;;;;;;;;;;;;;29.06;41.97;94554.97;5012466;28;9134;-56
2023/09/14 12:15:38;;;;;;;;;;;;;;;29.04;42.30;94552.72;5009896;28;8878;-55
2023/09/14 12:18:17;;;;;;;;;;;;;;;29.06;41.69;94552.19;5009760;28;7272;-55
2023/09/14 12:21:03;;;;;;;;;;;;;;;29.09;42.26;94546.34;5001224;28;9153;-55
2023/09/14 12:23:32;;;;;;;;;;;;;;;29.12;41.88;94552.09;5007677;28;7421;-55
2023/09/14 12:25:59;;;;;;;;;;;;;;;29.07;41.96;94542.63;5000463;28;7384;-55
2023/09/14 12:28:57;;;;;;;;;;;;;;;29.03;41.78;94545.72;5012278;28;9251;-55
2023/09/14 12:31:38;;;;;;;;;;;;;;;29.04;42.69;94540.88;5015882;28;9066;-55
2023/09/14 12:34:07;;;;;;;;;;;;;;;29.07;41.82;94540.59;5015432;28;7233;-54
2023/09/14 12:36:34;;;;;;;;;;;;;;;29.09;42.55;94537.28;5030191;28;7425;-55
2023/09/14 12:39:21;;;;;;;;;;;;;;;29.06;42.21;94538.34;5015828;28;7037;-55
2023/09/14 12:41:53;;;;;;;;;;;;;;;28.99;43.13;94536.94;5014399;28;9191;-55
2023/09/14 12:44:33;;;;;;;;;;;;;;;29.03;42.33;94533.88;5037576;28;7040;-55
2023/09/14 12:47:01;;;;;;;;;;;;;;;29.04;42.23;94530.56;5015944;28;8031;-55
2023/09/14 12:49:27;;;;;;;;;;;;;;;29.06;42.19;94527.25;5014639;28;7216;-55
2023/09/14 12:51:54;;;;;;;;;;;;;;;29.04;42.03;94532.59;5006725;28;7241;-54
2023/09/14 12:54:27;;;;;;;;;;;;;;;29.07;42.79;94529.53;5026862;28;6999;-55
2023/09/14 12:56:55;;;;;;;;;;;;;;;29.09;42.49;94526.22;5011487;28;9441;-55
2023/09/14 12:59:26;;;;;;;;;;;;;;;29.09;42.21;94521.41;5013368;28;9178;-55
2023/09/14 13:01:52;;;;;;;;;;;;;;;29.10;42.19;94517.34;5004630;28;6999;-55
2023/09/14 13:04:21;;;;;;;;;;;;;;;29.13;42.68;94517.56;5012051;28;7212;-55
2023/09/14 13:06:47;;;;;;;;;;;;;;;29.13;42.97;94517.56;4999550;28;7811;-55
2023/09/14 13:09:19;;;;;;;;;;;;;;;29.14;42.94;94516.31;5007810;28;7071;-55
2023/09/14 13:11:51;;;;;;;;;;;;;;;29.15;43.11;94512.25;5013702;28;7085;-55
2023/09/14 13:14:22;;;;;;;;;;;;;;;29.17;42.60;94513.25;5014538;28;7022;-54
2023/09/14 13:16:57;;;;;;;;;;;;;;;29.17;42.42;94510.47;5006030;28;7121;-54
2023/09/14 13:19:27;;;;;;;;;;;;;;;29.19;42.19;94507.19;5015161;28;7381;-55
2023/09/14 13:22:07;;;;;;;;;;;;;;;29.21;43.10;94505.34;5013301;28;7246;-54
2023/09/14 13:24:35;;;;;;;;;;;;;;;29.22;42.87;94506.84;5016042;28;7226;-65
2023/09/14 13:27:12;;;;;;;;;;;;;;;29.23;41.77;94502.78;5014236;28;9070;-65
2023/09/14 13:33:01;;;;;;;;;;;;;;;29.21;42.56;94494.28;4998992;28;9628;-65
2023/09/14 13:35:41;;;;;;;;;;;;;;;29.20;42.64;94500.34;5002520;28;7473;-65
2023/09/14 13:38:08;;;;;;;;;;;;;;;29.19;42.12;94498.88;5015131;28;7247;-65